GLO9810 SBGL-SBCF
Flight info
| Callsign | GLO9810 |
|---|---|
| Flight time | 0h 41m |
| Altitude | 31000 |
| Route | DAKDA UZ4 TOKUR |
| Aircraft | B737/M-SDFGIKLORWXY/LB1 |
Departure
| Time | 2026-04-27 01:40 |
|---|---|
| Airport | Rio Galeão – Tom Jobim International Airport (SBGL) |
Arrival
| Time | 2026-04-27 02:22 |
|---|---|
| Airport | Tancredo Neves International Airport (SBCF) |
| Time | Latitude | Longitude | Altitude | Speed | Heading |
|---|---|---|---|---|---|
| 2026-04-27 01:13 | -22.81597 | -43.24693 | 22 ft | 0 kts | 26° |
| 2026-04-27 01:32 | -22.81600 | -43.24695 | 21 ft | 3 kts | 26° |
| 2026-04-27 01:32 | -22.81620 | -43.24705 | 21 ft | 4 kts | 15° |
| 2026-04-27 01:32 | -22.81644 | -43.24705 | 21 ft | 4 kts | 323° |
| 2026-04-27 01:33 | -22.81658 | -43.24689 | 21 ft | 1 kts | 305° |
| 2026-04-27 01:33 | -22.81660 | -43.24686 | 24 ft | 0 kts | 305° |
| 2026-04-27 01:35 | -22.81655 | -43.24692 | 22 ft | 3 kts | 305° |
| 2026-04-27 01:35 | -22.81637 | -43.24724 | 23 ft | 7 kts | 304° |
| 2026-04-27 01:35 | -22.81605 | -43.24776 | 21 ft | 9 kts | 302° |
| 2026-04-27 01:36 | -22.81570 | -43.24830 | 21 ft | 8 kts | 311° |
| 2026-04-27 01:36 | -22.81528 | -43.24872 | 21 ft | 8 kts | 309° |
| 2026-04-27 01:36 | -22.81496 | -43.24928 | 22 ft | 10 kts | 300° |
| 2026-04-27 01:36 | -22.81455 | -43.25004 | 21 ft | 12 kts | 301° |
| 2026-04-27 01:37 | -22.81418 | -43.25081 | 20 ft | 8 kts | 284° |
| 2026-04-27 01:37 | -22.81449 | -43.25131 | 20 ft | 9 kts | 217° |
| 2026-04-27 01:37 | -22.81509 | -43.25175 | 22 ft | 12 kts | 214° |
| 2026-04-27 01:37 | -22.81585 | -43.25237 | 21 ft | 15 kts | 216° |
| 2026-04-27 01:38 | -22.81667 | -43.25297 | 22 ft | 14 kts | 214° |
| 2026-04-27 01:38 | -22.81732 | -43.25372 | 21 ft | 13 kts | 238° |
| 2026-04-27 01:38 | -22.81751 | -43.25465 | 22 ft | 13 kts | 279° |
| 2026-04-27 01:38 | -22.81736 | -43.25559 | 22 ft | 13 kts | 279° |
| 2026-04-27 01:39 | -22.81738 | -43.25620 | 25 ft | 3 kts | 218° |
| 2026-04-27 01:39 | -22.81751 | -43.25604 | 25 ft | 4 kts | 112° |
| 2026-04-27 01:39 | -22.81842 | -43.25465 | 24 ft | 57 kts | 126° |
| 2026-04-27 01:39 | -22.82223 | -43.24889 | 20 ft | 128 kts | 126° |
| 2026-04-27 01:40 | -22.82868 | -43.23945 | 150 ft | 171 kts | 127° |
| 2026-04-27 01:40 | -22.83575 | -43.22882 | 806 ft | 179 kts | 119° |
| 2026-04-27 01:40 | -22.83982 | -43.21574 | 1433 ft | 190 kts | 94° |
| 2026-04-27 01:40 | -22.83729 | -43.20097 | 1775 ft | 215 kts | 62° |
| 2026-04-27 01:41 | -22.82956 | -43.18570 | 2036 ft | 247 kts | 60° |
| 2026-04-27 01:41 | -22.82103 | -43.16899 | 2738 ft | 258 kts | 60° |
| 2026-04-27 01:41 | -22.81232 | -43.15169 | 3519 ft | 265 kts | 60° |
| 2026-04-27 01:41 | -22.80346 | -43.13388 | 4356 ft | 271 kts | 59° |
| 2026-04-27 01:42 | -22.79449 | -43.11568 | 5204 ft | 276 kts | 59° |
| 2026-04-27 01:42 | -22.78554 | -43.09740 | 6067 ft | 281 kts | 59° |
| 2026-04-27 01:42 | -22.77635 | -43.07857 | 6945 ft | 285 kts | 60° |
| 2026-04-27 01:42 | -22.76701 | -43.05939 | 7840 ft | 290 kts | 60° |
| 2026-04-27 01:43 | -22.75750 | -43.03988 | 8778 ft | 295 kts | 61° |
| 2026-04-27 01:43 | -22.74734 | -43.02041 | 9740 ft | 299 kts | 51° |
| 2026-04-27 01:43 | -22.73131 | -43.00602 | 10504 ft | 309 kts | 25° |
| 2026-04-27 01:43 | -22.70977 | -43.00078 | 10828 ft | 330 kts | 355° |
| 2026-04-27 01:44 | -22.68754 | -43.00742 | 11565 ft | 335 kts | 334° |
| 2026-04-27 01:44 | -22.66487 | -43.01402 | 12412 ft | 345 kts | 358° |
| 2026-04-27 01:44 | -22.64111 | -43.00934 | 13356 ft | 351 kts | 16° |
| 2026-04-27 01:44 | -22.61775 | -43.00093 | 14177 ft | 357 kts | 17° |
| 2026-04-27 01:45 | -22.59398 | -42.99259 | 14965 ft | 361 kts | 15° |
| 2026-04-27 01:45 | -22.56973 | -42.98490 | 15817 ft | 364 kts | 13° |
| 2026-04-27 01:45 | -22.54513 | -42.97785 | 16672 ft | 367 kts | 11° |
| 2026-04-27 01:45 | -22.52024 | -42.97123 | 17446 ft | 372 kts | 10° |
| 2026-04-27 01:46 | -22.49491 | -42.96478 | 17851 ft | 375 kts | 10° |
| 2026-04-27 01:46 | -22.46983 | -42.95854 | 18006 ft | 376 kts | 9° |
| 2026-04-27 01:46 | -22.44402 | -42.95217 | 18507 ft | 383 kts | 9° |
| 2026-04-27 01:46 | -22.41807 | -42.94578 | 19303 ft | 382 kts | 9° |
| 2026-04-27 01:47 | -22.39215 | -42.93936 | 20110 ft | 381 kts | 9° |
| 2026-04-27 01:47 | -22.36622 | -42.93296 | 20805 ft | 385 kts | 9° |
| 2026-04-27 01:47 | -22.33994 | -42.92647 | 21451 ft | 389 kts | 9° |
| 2026-04-27 01:47 | -22.31313 | -42.92342 | 22054 ft | 387 kts | 352° |
| 2026-04-27 01:48 | -22.28657 | -42.92739 | 22742 ft | 386 kts | 348° |
| 2026-04-27 01:48 | -22.25993 | -42.93227 | 23338 ft | 390 kts | 347° |
| 2026-04-27 01:48 | -22.23300 | -42.93720 | 23891 ft | 394 kts | 347° |
| 2026-04-27 01:48 | -22.20581 | -42.94194 | 24415 ft | 397 kts | 348° |
| 2026-04-27 01:49 | -22.17838 | -42.94651 | 24919 ft | 400 kts | 348° |
| 2026-04-27 01:49 | -22.15073 | -42.95104 | 25434 ft | 403 kts | 348° |
| 2026-04-27 01:49 | -22.12287 | -42.95561 | 25942 ft | 406 kts | 348° |
| 2026-04-27 01:49 | -22.09484 | -42.96022 | 26437 ft | 409 kts | 348° |
| 2026-04-27 01:50 | -22.06654 | -42.96490 | 26913 ft | 412 kts | 348° |
| 2026-04-27 01:50 | -22.03806 | -42.96960 | 27404 ft | 416 kts | 348° |
| 2026-04-27 01:50 | -22.00923 | -42.97435 | 27834 ft | 420 kts | 348° |
| 2026-04-27 01:50 | -21.98059 | -42.97906 | 28295 ft | 423 kts | 348° |
| 2026-04-27 01:51 | -21.95135 | -42.98388 | 28809 ft | 425 kts | 348° |
| 2026-04-27 01:51 | -21.92208 | -42.98868 | 29481 ft | 422 kts | 348° |
| 2026-04-27 01:51 | -21.89320 | -42.99341 | 30233 ft | 419 kts | 347° |
| 2026-04-27 01:51 | -21.86440 | -42.99814 | 30798 ft | 418 kts | 347° |
| 2026-04-27 01:52 | -21.83560 | -43.00287 | 30976 ft | 419 kts | 347° |
| 2026-04-27 01:52 | -21.77821 | -43.01230 | 31005 ft | 417 kts | 348° |
| 2026-04-27 01:53 | -21.72077 | -43.02174 | 31022 ft | 418 kts | 348° |
| 2026-04-27 01:53 | -21.66360 | -43.03111 | 31024 ft | 418 kts | 348° |
| 2026-04-27 01:54 | -21.60611 | -43.04053 | 31018 ft | 418 kts | 348° |
| 2026-04-27 01:54 | -21.54866 | -43.04994 | 31018 ft | 417 kts | 348° |
| 2026-04-27 01:55 | -21.49122 | -43.05929 | 31018 ft | 416 kts | 348° |
| 2026-04-27 01:55 | -21.43384 | -43.06870 | 31020 ft | 416 kts | 348° |
| 2026-04-27 01:56 | -21.34799 | -43.08274 | 31017 ft | 416 kts | 348° |
| 2026-04-27 01:56 | -21.29118 | -43.09201 | 31019 ft | 416 kts | 348° |
| 2026-04-27 01:57 | -21.23387 | -43.10136 | 31020 ft | 416 kts | 348° |
| 2026-04-27 01:57 | -21.17651 | -43.11070 | 31028 ft | 417 kts | 348° |
| 2026-04-27 01:58 | -21.11904 | -43.12005 | 31028 ft | 417 kts | 348° |
| 2026-04-27 01:58 | -21.06195 | -43.12935 | 31031 ft | 417 kts | 348° |
| 2026-04-27 01:59 | -21.00458 | -43.13868 | 31026 ft | 417 kts | 349° |
| 2026-04-27 01:59 | -20.94707 | -43.14802 | 31033 ft | 417 kts | 349° |
| 2026-04-27 02:00 | -20.88957 | -43.15736 | 31031 ft | 417 kts | 349° |
| 2026-04-27 02:00 | -20.83250 | -43.16662 | 31038 ft | 417 kts | 349° |
| 2026-04-27 02:01 | -20.77780 | -43.18445 | 31055 ft | 411 kts | 333° |
| 2026-04-27 02:01 | -20.72562 | -43.21011 | 31050 ft | 413 kts | 334° |
| 2026-04-27 02:02 | -20.67324 | -43.23555 | 31043 ft | 414 kts | 334° |
| 2026-04-27 02:02 | -20.62064 | -43.26078 | 31045 ft | 414 kts | 334° |
| 2026-04-27 02:03 | -20.57688 | -43.28166 | 31052 ft | 414 kts | 334° |
| 2026-04-27 02:03 | -20.52420 | -43.30677 | 30932 ft | 415 kts | 334° |
| 2026-04-27 02:04 | -20.49765 | -43.31943 | 30333 ft | 418 kts | 334° |
| 2026-04-27 02:04 | -20.47111 | -43.33208 | 29559 ft | 418 kts | 335° |
| 2026-04-27 02:04 | -20.44456 | -43.34473 | 28725 ft | 418 kts | 335° |
| 2026-04-27 02:04 | -20.41809 | -43.35733 | 28083 ft | 414 kts | 335° |
| 2026-04-27 02:05 | -20.39183 | -43.36983 | 27458 ft | 410 kts | 335° |
| 2026-04-27 02:05 | -20.36585 | -43.38219 | 26845 ft | 407 kts | 335° |
| 2026-04-27 02:05 | -20.34014 | -43.39442 | 26228 ft | 404 kts | 335° |
| 2026-04-27 02:05 | -20.31454 | -43.40660 | 25633 ft | 400 kts | 335° |
| 2026-04-27 02:06 | -20.28949 | -43.41850 | 25044 ft | 398 kts | 335° |
| 2026-04-27 02:06 | -20.26396 | -43.43062 | 24570 ft | 395 kts | 335° |
| 2026-04-27 02:06 | -20.23919 | -43.44236 | 24105 ft | 394 kts | 335° |
| 2026-04-27 02:06 | -20.21421 | -43.45421 | 23603 ft | 393 kts | 335° |
| 2026-04-27 02:07 | -20.18918 | -43.46608 | 23043 ft | 392 kts | 335° |
| 2026-04-27 02:07 | -20.16431 | -43.47787 | 22561 ft | 390 kts | 335° |
| 2026-04-27 02:07 | -20.13953 | -43.48961 | 22077 ft | 388 kts | 335° |
| 2026-04-27 02:07 | -20.11490 | -43.50127 | 21609 ft | 386 kts | 335° |
| 2026-04-27 02:08 | -20.09032 | -43.51292 | 21145 ft | 385 kts | 335° |
| 2026-04-27 02:08 | -20.06591 | -43.52448 | 20683 ft | 383 kts | 335° |
| 2026-04-27 02:08 | -20.04165 | -43.53596 | 20231 ft | 382 kts | 335° |
| 2026-04-27 02:08 | -20.01740 | -43.54744 | 19754 ft | 381 kts | 335° |
| 2026-04-27 02:09 | -19.99330 | -43.55884 | 19289 ft | 378 kts | 335° |
| 2026-04-27 02:09 | -19.96944 | -43.57012 | 18831 ft | 372 kts | 335° |
| 2026-04-27 02:09 | -19.94596 | -43.58122 | 18380 ft | 366 kts | 335° |
| 2026-04-27 02:09 | -19.92285 | -43.59215 | 17895 ft | 362 kts | 335° |
| 2026-04-27 02:10 | -19.89990 | -43.60299 | 17430 ft | 360 kts | 335° |
| 2026-04-27 02:10 | -19.87706 | -43.61378 | 16992 ft | 358 kts | 335° |
| 2026-04-27 02:10 | -19.85496 | -43.62513 | 16561 ft | 355 kts | 329° |
| 2026-04-27 02:10 | -19.83485 | -43.64022 | 16143 ft | 353 kts | 319° |
| 2026-04-27 02:11 | -19.81640 | -43.65733 | 15722 ft | 352 kts | 318° |
| 2026-04-27 02:11 | -19.79816 | -43.67464 | 15304 ft | 352 kts | 318° |
| 2026-04-27 02:11 | -19.77986 | -43.69199 | 14869 ft | 352 kts | 318° |
| 2026-04-27 02:11 | -19.76148 | -43.70926 | 14436 ft | 353 kts | 318° |
| 2026-04-27 02:12 | -19.74300 | -43.72650 | 14008 ft | 353 kts | 318° |
| 2026-04-27 02:12 | -19.72452 | -43.74366 | 13541 ft | 354 kts | 319° |
| 2026-04-27 02:12 | -19.70598 | -43.76084 | 13088 ft | 353 kts | 319° |
| 2026-04-27 02:12 | -19.68750 | -43.77797 | 12649 ft | 352 kts | 319° |
| 2026-04-27 02:13 | -19.66912 | -43.79499 | 12264 ft | 350 kts | 319° |
| 2026-04-27 02:13 | -19.65079 | -43.81197 | 11844 ft | 348 kts | 319° |
| 2026-04-27 02:13 | -19.63255 | -43.82886 | 11423 ft | 346 kts | 319° |
| 2026-04-27 02:13 | -19.61470 | -43.84539 | 11014 ft | 344 kts | 320° |
| 2026-04-27 02:14 | -19.59683 | -43.86193 | 10600 ft | 337 kts | 320° |
| 2026-04-27 02:14 | -19.57940 | -43.87806 | 10192 ft | 326 kts | 320° |
| 2026-04-27 02:14 | -19.56280 | -43.89342 | 10046 ft | 303 kts | 320° |
| 2026-04-27 02:14 | -19.54704 | -43.90800 | 9503 ft | 298 kts | 320° |
| 2026-04-27 02:15 | -19.53172 | -43.92215 | 9128 ft | 295 kts | 320° |
| 2026-04-27 02:15 | -19.51633 | -43.93637 | 8793 ft | 293 kts | 320° |
| 2026-04-27 02:15 | -19.50096 | -43.95056 | 8454 ft | 292 kts | 320° |
| 2026-04-27 02:15 | -19.48574 | -43.96462 | 8102 ft | 289 kts | 320° |
| 2026-04-27 02:16 | -19.47064 | -43.97855 | 7716 ft | 287 kts | 320° |
| 2026-04-27 02:16 | -19.45656 | -43.99330 | 7370 ft | 284 kts | 304° |
| 2026-04-27 02:16 | -19.44961 | -44.01250 | 7063 ft | 280 kts | 276° |
| 2026-04-27 02:16 | -19.45143 | -44.03272 | 6762 ft | 275 kts | 251° |
| 2026-04-27 02:17 | -19.46037 | -44.05028 | 6460 ft | 268 kts | 231° |
| 2026-04-27 02:17 | -19.47225 | -44.06493 | 6110 ft | 257 kts | 228° |
| 2026-04-27 02:17 | -19.48399 | -44.07848 | 5815 ft | 248 kts | 221° |
| 2026-04-27 02:17 | -19.49888 | -44.08583 | 5540 ft | 232 kts | 181° |
| 2026-04-27 02:18 | -19.51335 | -44.08128 | 5297 ft | 213 kts | 140° |
| 2026-04-27 02:18 | -19.52394 | -44.07119 | 5097 ft | 198 kts | 137° |
| 2026-04-27 02:18 | -19.53374 | -44.06179 | 5018 ft | 184 kts | 137° |
| 2026-04-27 02:18 | -19.54321 | -44.05291 | 4796 ft | 178 kts | 137° |
| 2026-04-27 02:19 | -19.55242 | -44.04433 | 4558 ft | 173 kts | 138° |
| 2026-04-27 02:19 | -19.56131 | -44.03606 | 4339 ft | 165 kts | 138° |
| 2026-04-27 02:19 | -19.56962 | -44.02833 | 4173 ft | 149 kts | 138° |
| 2026-04-27 02:19 | -19.57718 | -44.02130 | 3949 ft | 139 kts | 138° |
| 2026-04-27 02:20 | -19.58432 | -44.01465 | 3793 ft | 139 kts | 137° |
| 2026-04-27 02:20 | -19.59170 | -44.00778 | 3623 ft | 142 kts | 138° |
| 2026-04-27 02:20 | -19.59913 | -44.00087 | 3450 ft | 141 kts | 137° |
| 2026-04-27 02:20 | -19.60651 | -43.99399 | 3273 ft | 141 kts | 139° |
| 2026-04-27 02:21 | -19.61385 | -43.98714 | 3098 ft | 140 kts | 139° |
| 2026-04-27 02:21 | -19.62110 | -43.98041 | 2907 ft | 137 kts | 139° |
| 2026-04-27 02:21 | -19.62810 | -43.97398 | 2808 ft | 124 kts | 136° |
| 2026-04-27 02:21 | -19.63346 | -43.96900 | 2807 ft | 72 kts | 139° |
| 2026-04-27 02:22 | -19.63528 | -43.96719 | 2808 ft | 14 kts | 124° |
| 2026-04-27 02:22 | -19.63574 | -43.96630 | 2806 ft | 13 kts | 115° |
| 2026-04-27 02:22 | -19.63606 | -43.96541 | 2806 ft | 13 kts | 108° |
| 2026-04-27 02:22 | -19.63634 | -43.96451 | 2807 ft | 13 kts | 108° |
| 2026-04-27 02:23 | -19.63625 | -43.96367 | 2811 ft | 12 kts | 43° |
| 2026-04-27 02:23 | -19.63552 | -43.96325 | 2810 ft | 12 kts | 27° |
| 2026-04-27 02:23 | -19.63484 | -43.96293 | 2809 ft | 9 kts | 354° |
| 2026-04-27 02:23 | -19.63447 | -43.96343 | 2809 ft | 10 kts | 296° |
| 2026-04-27 02:24 | -19.63412 | -43.96415 | 2807 ft | 12 kts | 299° |
| 2026-04-27 02:24 | -19.63357 | -43.96481 | 2807 ft | 12 kts | 319° |
| 2026-04-27 02:24 | -19.63319 | -43.96524 | 2807 ft | 5 kts | 279° |
| 2026-04-27 02:24 | -19.63337 | -43.96552 | 2807 ft | 5 kts | 229° |
| 2026-04-27 02:25 | -19.63348 | -43.96565 | 2807 ft | 1 kts | 228° |
| 2026-04-27 02:25 | -19.63349 | -43.96566 | 2807 ft | 0 kts | 228° |